This is the latest recevied weather packets stored in our database for station/object W4MSI. If no packets are shown the sender has not sent any weather packets the latest 10 day(s).
| Time | Temp. | Humidity | Pressure | Rain* | Wind** | Luminosity | Snow |
|---|---|---|---|---|---|---|---|
| 1777653249 | 16.11° C | 49% | 1016.2 hPa | 0 mm | - | 794 W/m² | - |
| 1777652946 | 16.11° C | 44% | 1016.5 hPa | 0 mm | - | 785 W/m² | - |
| 1777652643 | 16.11° C | 50% | 1016.2 hPa | 0 mm | - | 847 W/m² | - |
| 1777652340 | 16.11° C | 48% | 1016.3 hPa | 0 mm | - | 745 W/m² | - |
| 1777652037 | 16.11° C | 51% | 1016.3 hPa | 0 mm | - | 823 W/m² | - |
| 1777651733 | 16.67° C | 53% | 1016.4 hPa | 0 mm | - | 869 W/m² | - |
| 1777651430 | 16.11° C | 53% | 1016.3 hPa | 0 mm | - | 718 W/m² | - |
| 1777651128 | 16.11° C | 48% | 1016.4 hPa | 0 mm | - | 663 W/m² | - |
| 1777650824 | 16.11° C | 50% | 1016.4 hPa | 0 mm | - | 749 W/m² | - |
| 1777650521 | 16.11° C | 53% | 1016.5 hPa | 0 mm | - | 688 W/m² | - |
| 1777650219 | 15.56° C | 54% | 1016.3 hPa | 0 mm | - | 708 W/m² | - |
| 1777649916 | 15.56° C | 53% | 1016.3 hPa | 0 mm | - | 700 W/m² | - |
| 1777649613 | 15° C | 52% | 1016.3 hPa | 0 mm | - | 693 W/m² | - |
| 1777649314 | 15.56° C | 53% | 1016.3 hPa | 0 mm | - | 639 W/m² | - |
| 1777649012 | 15.56° C | 52% | 1016.4 hPa | 0 mm | - | 647 W/m² | - |
| 1777648709 | 15.56° C | 53% | 1016.3 hPa | 0 mm | - | 646 W/m² | - |
| 1777648405 | 15.56° C | 53% | 1016 hPa | 0 mm | - | 623 W/m² | - |
| 1777648102 | 15.56° C | 53% | 1015.9 hPa | 0 mm | - | 613 W/m² | - |
| 1777647798 | 15.56° C | 54% | 1016 hPa | 0 mm | - | 603 W/m² | - |
| 1777647494 | 15° C | 54% | 1016.1 hPa | 0 mm | - | 573 W/m² | - |
| 1777647192 | 15° C | 56% | 1015.9 hPa | 0 mm | - | 574 W/m² | - |
| 1777646888 | 15.56° C | 54% | 1015.9 hPa | 0 mm | - | 551 W/m² | - |
| 1777646584 | 15° C | 56% | 1015.8 hPa | 0 mm | - | 518 W/m² | - |
| 1777646281 | 15° C | 56% | 1015.8 hPa | 0 mm | - | 516 W/m² | - |
| 1777645978 | 15° C | 56% | 1015.6 hPa | 0 mm | - | 496 W/m² | - |
* Rain latest hour (hover to see other rain measurements)
** Current wind speed in m/s (hover to see current wind gust speed)